createdAt,value
2022-09-20T00:01:31.801Z,99829.10
2022-09-20T00:04:00.617Z,99830.10
2022-09-20T00:06:30.197Z,99832.34
2022-09-20T00:08:59.058Z,99831.56
2022-09-20T00:11:28.596Z,99834.02
2022-09-20T00:13:58.438Z,99835.98
2022-09-20T00:16:31.959Z,99835.48
2022-09-20T00:19:02.315Z,99837.36
2022-09-20T00:21:30.599Z,99842.09
2022-09-20T00:23:58.066Z,99841.16
2022-09-20T00:26:26.879Z,99842.20
2022-09-20T00:28:54.570Z,99842.64
2022-09-20T00:31:22.619Z,99844.73
2022-09-20T00:34:07.935Z,99843.35
2022-09-20T00:36:34.621Z,99843.77
2022-09-20T00:39:02.970Z,99847.35
2022-09-20T00:41:31.554Z,99847.59
2022-09-20T00:43:59.870Z,99845.84
2022-09-20T00:46:44.735Z,99847.58
2022-09-20T00:49:22.337Z,99847.54
2022-09-20T00:51:57.141Z,99846.08
2022-09-20T00:54:26.533Z,99847.23
2022-09-20T00:56:53.389Z,99846.83
2022-09-20T00:59:34.561Z,99847.40
2022-09-20T01:02:09.831Z,99845.25
2022-09-20T01:04:42.164Z,99847.86
2022-09-20T01:07:13.280Z,99846.89
2022-09-20T01:09:39.833Z,99848.89
2022-09-20T01:12:13.276Z,99850.55
2022-09-20T01:14:43.037Z,99848.00
2022-09-20T01:17:12.394Z,99847.98
2022-09-20T01:20:00.489Z,99848.40
2022-09-20T01:22:58.235Z,99849.79
2022-09-20T01:25:53.659Z,99849.09
2022-09-20T01:28:20.969Z,99851.98
2022-09-20T01:31:28.055Z,99852.39
2022-09-20T01:34:10.933Z,99854.41
2022-09-20T01:36:44.295Z,99856.02
2022-09-20T01:39:22.943Z,99860.75
2022-09-20T01:42:04.537Z,99859.52
2022-09-20T01:45:01.572Z,99856.58
2022-09-20T01:47:55.044Z,99856.81
2022-09-20T01:50:52.489Z,99865.86
2022-09-20T01:53:56.562Z,99861.98
2022-09-20T01:56:59.065Z,99859.48
2022-09-20T01:59:37.520Z,99858.93
2022-09-20T02:02:19.623Z,99859.11
2022-09-20T02:04:55.684Z,99857.27
2022-09-20T02:07:42.573Z,99854.80
2022-09-20T02:10:27.574Z,99859.03
2022-09-20T02:13:03.933Z,99863.83
2022-09-20T02:15:51.089Z,99867.37
2022-09-20T02:18:36.123Z,99868.64
2022-09-20T02:21:30.977Z,99866.29
2022-09-20T02:24:00.558Z,99866.04
2022-09-20T02:26:45.079Z,99863.02
2022-09-20T02:29:32.534Z,99865.98
2022-09-20T02:32:24.600Z,99866.40
2022-09-20T02:35:10.962Z,99871.77
2022-09-20T02:38:05.118Z,99871.96
2022-09-20T02:40:50.625Z,99872.30
2022-09-20T02:44:03.875Z,99877.16
2022-09-20T02:46:40.381Z,99877.13
2022-09-20T02:49:29.870Z,99879.65
2022-09-20T02:52:11.253Z,99885.67
2022-09-20T02:54:57.049Z,99883.77
2022-09-20T02:57:41.734Z,99877.92
2022-09-20T03:00:16.421Z,99880.84
2022-09-20T03:03:11.110Z,99881.52
2022-09-20T03:06:08.558Z,99884.02
2022-09-20T03:08:54.864Z,99888.80
2022-09-20T03:11:24.290Z,99889.83
2022-09-20T03:14:10.317Z,99889.98
2022-09-20T03:17:05.378Z,99890.85
2022-09-20T03:20:09.362Z,99895.41
2022-09-20T03:22:51.848Z,99899.80
2022-09-20T03:25:51.267Z,99898.38
2022-09-20T03:28:43.434Z,99898.27
2022-09-20T03:31:21.139Z,99900.33
2022-09-20T03:33:53.628Z,99897.60
2022-09-20T03:36:37.049Z,99899.00
2022-09-20T03:39:06.394Z,99901.88
2022-09-20T03:42:01.111Z,99899.70
2022-09-20T03:44:53.480Z,99908.36
2022-09-20T03:47:42.346Z,99908.81
2022-09-20T03:50:18.051Z,99904.24
2022-09-20T03:53:18.818Z,99908.05
2022-09-20T03:56:06.790Z,99906.77
2022-09-20T03:58:59.621Z,99905.36
2022-09-20T04:01:38.523Z,99906.27
2022-09-20T04:04:40.278Z,99908.90
2022-09-20T04:07:31.484Z,99911.04
2022-09-20T04:10:19.693Z,99917.18
2022-09-20T04:13:10.954Z,99922.71
2022-09-20T04:16:03.796Z,99922.10
2022-09-20T04:18:34.855Z,99927.82
2022-09-20T04:21:25.715Z,99937.26
2022-09-20T04:24:17.573Z,99935.77
2022-09-20T04:26:49.914Z,99935.59
2022-09-20T04:29:29.402Z,99933.67
2022-09-20T04:32:03.572Z,99930.60
2022-09-20T04:35:09.208Z,99934.57
2022-09-20T04:37:38.154Z,99937.23
2022-09-20T04:40:20.534Z,99943.02
2022-09-20T04:42:55.961Z,99946.02
2022-09-20T04:45:40.680Z,99950.08
2022-09-20T04:48:29.039Z,99950.16
2022-09-20T04:52:00.334Z,99953.73
2022-09-20T04:54:46.717Z,99957.84
2022-09-20T04:57:48.410Z,99962.15
2022-09-20T05:00:32.124Z,99959.42
2022-09-20T05:03:19.629Z,99965.14
2022-09-20T05:06:05.291Z,99967.05
2022-09-20T05:08:45.929Z,99971.75
2022-09-20T05:11:17.066Z,99980.04
2022-09-20T05:14:16.568Z,99984.42
2022-09-20T05:17:05.698Z,99991.63
2022-09-20T05:20:08.326Z,99994.90
2022-09-20T05:23:02.844Z,100002.65
2022-09-20T05:25:54.188Z,100003.19
2022-09-20T05:28:26.563Z,100007.52
2022-09-20T05:31:21.985Z,100002.86
2022-09-20T05:34:04.069Z,100004.52
2022-09-20T05:37:11.975Z,100003.56
2022-09-20T05:39:41.346Z,100000.22
2022-09-20T05:42:19.287Z,100005.85
2022-09-20T05:45:23.260Z,100008.98
2022-09-20T05:48:32.018Z,100012.50
2022-09-20T05:51:08.769Z,100017.02
2022-09-20T05:54:25.128Z,100023.44
2022-09-20T05:57:21.986Z,100020.65
2022-09-20T06:00:09.986Z,100022.13
2022-09-20T06:02:45.547Z,100022.48
2022-09-20T06:05:16.675Z,100028.25
2022-09-20T06:08:04.951Z,100031.79
2022-09-20T06:10:52.749Z,100030.85
2022-09-20T06:14:00.615Z,100029.63
2022-09-20T06:16:36.302Z,100030.02
2022-09-20T06:19:20.253Z,100031.53
2022-09-20T06:21:53.669Z,100034.14
2022-09-20T06:24:46.490Z,100035.04
2022-09-20T06:27:42.261Z,100045.01
2022-09-20T06:30:23.944Z,100048.89
2022-09-20T06:32:55.984Z,100053.14
2022-09-20T06:35:39.316Z,100056.84
2022-09-20T06:38:54.383Z,100054.27
2022-09-20T06:41:30.324Z,100060.59
2022-09-20T06:43:59.122Z,100061.16
2022-09-20T06:46:31.424Z,100059.40
2022-09-20T06:48:58.639Z,100065.05
2022-09-20T06:51:28.274Z,100070.47
2022-09-20T06:53:56.957Z,100072.30
2022-09-20T06:56:30.854Z,100072.59
2022-09-20T06:58:57.461Z,100076.96
2022-09-20T07:01:30.164Z,100078.84
2022-09-20T07:03:58.538Z,100078.52
2022-09-20T07:06:26.804Z,100081.96
2022-09-20T07:08:53.486Z,100084.08
2022-09-20T07:11:22.584Z,100085.09
2022-09-20T07:13:51.700Z,100085.27
2022-09-20T07:16:18.387Z,100087.22
2022-09-20T07:18:46.095Z,100089.84
2022-09-20T07:21:15.045Z,100092.83
2022-09-20T07:23:42.090Z,100096.80
2022-09-20T07:26:25.318Z,100102.65
2022-09-20T07:28:52.977Z,100107.42
2022-09-20T07:31:22.336Z,100108.58
2022-09-20T07:33:49.573Z,100113.66
2022-09-20T07:36:16.696Z,100120.76
2022-09-20T07:38:50.500Z,100124.88
2022-09-20T07:41:22.384Z,100126.88
2022-09-20T07:43:50.337Z,100130.91
2022-09-20T07:46:18.719Z,100131.38
2022-09-20T07:48:45.390Z,100128.34
2022-09-20T07:51:13.580Z,100131.65
2022-09-20T07:53:41.059Z,100135.35
2022-09-20T07:56:14.745Z,100133.13
2022-09-20T07:58:42.746Z,100132.55
2022-09-20T08:01:12.845Z,100141.43
2022-09-20T08:03:42.987Z,100139.95
2022-09-20T08:06:14.621Z,100143.92
2022-09-20T08:08:41.979Z,100143.16
2022-09-20T08:11:12.929Z,100142.54
2022-09-20T08:16:31.308Z,100148.42
2022-09-20T08:19:02.055Z,100148.05
2022-09-20T08:21:32.399Z,100150.59
2022-09-20T08:24:00.278Z,100152.89
2022-09-20T08:26:30.617Z,100152.32
2022-09-20T08:28:58.985Z,100152.80
2022-09-20T08:31:30.787Z,100157.65
2022-09-20T08:33:58.533Z,100158.45
2022-09-20T08:36:25.794Z,100159.58
2022-09-20T08:41:46.471Z,100163.73
2022-09-20T08:44:25.065Z,100166.67
2022-09-20T08:47:02.455Z,100170.11
2022-09-20T08:49:30.153Z,100171.83
2022-09-20T08:51:59.339Z,100173.25
2022-09-20T08:54:32.163Z,100170.16
2022-09-20T08:57:06.691Z,100172.81
2022-09-20T08:59:33.767Z,100173.05
2022-09-20T09:02:00.678Z,100175.52
2022-09-20T09:04:47.907Z,100175.77
2022-09-20T09:07:20.533Z,100175.96
2022-09-20T09:09:49.387Z,100177.48
2022-09-20T09:12:22.725Z,100175.78
2022-09-20T09:14:54.560Z,100175.91
2022-09-20T09:17:27.922Z,100180.16
2022-09-20T09:20:21.159Z,100180.45
2022-09-20T09:22:59.505Z,100178.52
2022-09-20T09:25:38.503Z,100178.87
2022-09-20T09:28:07.926Z,100180.60
2022-09-20T09:30:37.804Z,100180.81
2022-09-20T09:33:27.646Z,100184.71
2022-09-20T09:36:15.006Z,100187.41
2022-09-20T09:38:44.970Z,100185.73
2022-09-20T09:41:17.259Z,100188.11
2022-09-20T09:43:58.859Z,100191.46
2022-09-20T09:46:30.538Z,100191.70
2022-09-20T09:49:09.352Z,100192.01
2022-09-20T09:51:38.255Z,100194.27
2022-09-20T09:54:07.689Z,100193.42
2022-09-20T09:57:01.204Z,100194.98
2022-09-20T09:59:45.211Z,100200.19
2022-09-20T10:02:12.346Z,100199.39
2022-09-20T10:05:12.866Z,100200.65
2022-09-20T10:07:46.593Z,100205.49
2022-09-20T10:10:45.064Z,100202.47
2022-09-20T10:13:27.074Z,100213.52
2022-09-20T10:16:08.898Z,100210.89
2022-09-20T10:19:24.310Z,100213.73
2022-09-20T10:22:02.237Z,100214.25
2022-09-20T10:24:39.138Z,100216.64
2022-09-20T10:27:24.403Z,100211.03
2022-09-20T10:30:02.702Z,100206.83
2022-09-20T10:33:03.438Z,100204.87
2022-09-20T10:35:55.342Z,100208.58
2022-09-20T10:38:33.510Z,100206.73
2022-09-20T10:41:31.537Z,100208.72
2022-09-20T10:44:12.537Z,100207.11
2022-09-20T10:47:08.519Z,100207.86
2022-09-20T10:50:00.548Z,100209.92
2022-09-20T10:52:47.058Z,100209.55
2022-09-20T10:55:39.818Z,100209.15
2022-09-20T10:58:29.974Z,100213.10
2022-09-20T11:01:22.097Z,100211.38
2022-09-20T11:04:13.351Z,100206.10
2022-09-20T11:06:55.379Z,100211.29
2022-09-20T11:09:31.195Z,100213.42
2022-09-20T11:12:17.257Z,100213.19
2022-09-20T11:15:01.958Z,100212.39
2022-09-20T11:17:31.504Z,100211.73
2022-09-20T11:20:28.912Z,100209.49
2022-09-20T11:23:03.814Z,100207.13
2022-09-20T11:25:51.257Z,100206.97
2022-09-20T11:28:41.274Z,100211.27
2022-09-20T11:31:32.294Z,100218.94
2022-09-20T11:34:22.777Z,100210.60
2022-09-20T11:36:57.504Z,100213.33
2022-09-20T11:39:27.218Z,100208.31
2022-09-20T11:41:56.891Z,100214.98
2022-09-20T11:44:24.196Z,100214.88
2022-09-20T11:47:06.544Z,100210.41
2022-09-20T11:49:48.204Z,100208.55
2022-09-20T11:52:33.722Z,100207.99
2022-09-20T11:55:13.299Z,100212.09
2022-09-20T11:57:40.384Z,100212.38
2022-09-20T12:00:09.682Z,100208.19
2022-09-20T12:02:52.767Z,100206.63
2022-09-20T12:05:24.954Z,100208.58
2022-09-20T12:07:57.813Z,100210.96
2022-09-20T12:10:32.503Z,100210.57
2022-09-20T12:13:22.918Z,100211.19
2022-09-20T12:16:02.993Z,100210.32
2022-09-20T12:18:37.882Z,100215.23
2022-09-20T12:21:05.816Z,100216.04
2022-09-20T12:23:41.854Z,100215.83
2022-09-20T12:26:20.489Z,100216.26
2022-09-20T12:28:58.950Z,100214.30
2022-09-20T12:31:25.781Z,100221.28
2022-09-20T12:34:18.688Z,100216.73
2022-09-20T12:37:05.489Z,100213.98
2022-09-20T12:39:37.858Z,100219.13
2022-09-20T12:42:10.319Z,100215.71
2022-09-20T12:44:39.204Z,100216.15
2022-09-20T12:47:11.517Z,100209.78
2022-09-20T12:49:57.048Z,100211.67
2022-09-20T12:52:44.236Z,100211.23
2022-09-20T12:55:31.473Z,100205.38
2022-09-20T12:58:04.204Z,100201.67
2022-09-20T13:00:58.713Z,100199.54
2022-09-20T13:03:39.006Z,100196.65
2022-09-20T13:06:05.824Z,100193.84
2022-09-20T13:08:47.721Z,100198.66
2022-09-20T13:11:24.524Z,100200.19
2022-09-20T13:14:06.621Z,100200.47
2022-09-20T13:16:39.115Z,100203.40
2022-09-20T13:19:14.347Z,100202.30
2022-09-20T13:21:56.642Z,100205.59
2022-09-20T13:24:25.662Z,100208.87
2022-09-20T13:26:53.837Z,100208.54
2022-09-20T13:29:46.848Z,100206.60
2022-09-20T13:32:34.179Z,100211.50
2022-09-20T13:35:09.716Z,100215.00
2022-09-20T13:37:58.784Z,100215.58
2022-09-20T13:40:36.180Z,100222.28
2022-09-20T13:43:45.965Z,100222.92
2022-09-20T13:46:16.525Z,100233.41
2022-09-20T13:48:46.796Z,100236.38
2022-09-20T13:51:19.396Z,100242.37
2022-09-20T13:53:48.674Z,100241.71
2022-09-20T13:56:35.457Z,100237.02
2022-09-20T13:59:04.805Z,100234.08
2022-09-20T14:01:34.860Z,100230.44
2022-09-20T14:04:07.807Z,100227.29
2022-09-20T14:06:35.551Z,100220.55
2022-09-20T14:09:10.756Z,100218.76
2022-09-20T14:11:39.645Z,100219.12
2022-09-20T14:14:07.636Z,100217.93
2022-09-20T14:16:39.194Z,100214.02
2022-09-20T14:19:07.661Z,100212.53
2022-09-20T14:21:36.254Z,100209.55
2022-09-20T14:24:07.716Z,100210.20
2022-09-20T14:26:37.334Z,100210.77
2022-09-20T14:29:32.504Z,100208.28
2022-09-20T14:32:04.949Z,100209.43
2022-09-20T14:34:36.134Z,100210.36
2022-09-20T14:37:09.027Z,100211.87
2022-09-20T14:39:53.484Z,100214.75
2022-09-20T14:42:35.300Z,100213.77
2022-09-20T14:45:07.194Z,100215.90
2022-09-20T14:47:52.197Z,100216.45
2022-09-20T14:50:26.453Z,100222.89
2022-09-20T14:53:05.399Z,100230.54
2022-09-20T14:55:37.353Z,100250.94
2022-09-20T14:58:11.373Z,100266.29
2022-09-20T15:00:57.487Z,100269.33
2022-09-20T15:03:34.202Z,100268.63
2022-09-20T15:06:00.995Z,100271.11
2022-09-20T15:08:27.757Z,100273.83
2022-09-20T15:10:54.347Z,100274.77
2022-09-20T15:13:33.102Z,100276.79
2022-09-20T15:15:59.946Z,100276.17
2022-09-20T15:18:33.551Z,100283.52
2022-09-20T15:21:00.860Z,100284.27
2022-09-20T15:23:27.969Z,100278.76
2022-09-20T15:25:55.080Z,100273.21
2022-09-20T15:28:21.957Z,100271.02
2022-09-20T15:30:51.779Z,100256.92
2022-09-20T15:33:20.793Z,100253.74
2022-09-20T15:35:48.499Z,100264.55
2022-09-20T15:38:19.700Z,100272.44
2022-09-20T15:40:48.969Z,100282.27
2022-09-20T15:43:21.885Z,100285.20
2022-09-20T15:45:51.010Z,100284.58
2022-09-20T15:48:20.891Z,100291.73
2022-09-20T15:51:08.041Z,100291.68
2022-09-20T15:53:38.157Z,100287.81
2022-09-20T15:56:18.729Z,100281.98
2022-09-20T15:58:48.204Z,100281.87
2022-09-20T16:01:16.345Z,100283.59
2022-09-20T16:03:44.409Z,100281.16
2022-09-20T16:06:12.833Z,100282.77
2022-09-20T16:08:41.954Z,100283.42
2022-09-20T16:11:12.527Z,100284.25
2022-09-20T16:13:40.250Z,100288.00
2022-09-20T16:16:12.421Z,100288.42
2022-09-20T16:18:57.930Z,100290.79
2022-09-20T16:21:24.745Z,100292.30
2022-09-20T16:23:54.005Z,100286.77
2022-09-20T16:26:22.775Z,100287.70
2022-09-20T16:28:50.385Z,100283.83
2022-09-20T16:31:34.410Z,100285.35
2022-09-20T16:34:03.664Z,100287.96
2022-09-20T16:36:32.625Z,100284.92
2022-09-20T16:39:00.558Z,100281.27
2022-09-20T16:41:28.554Z,100279.10
2022-09-20T16:43:55.848Z,100280.73
2022-09-20T16:46:27.557Z,100278.77
2022-09-20T16:48:56.264Z,100284.77
2022-09-20T16:51:28.324Z,100286.25
2022-09-20T16:53:55.097Z,100290.30
2022-09-20T16:56:24.974Z,100297.39
2022-09-20T16:58:53.636Z,100296.34
2022-09-20T17:01:20.693Z,100300.13
2022-09-20T17:03:48.149Z,100296.77
2022-09-20T17:06:16.136Z,100298.95
2022-09-20T17:08:44.289Z,100301.35
2022-09-20T17:11:21.132Z,100303.11
2022-09-20T17:13:50.982Z,100305.33
2022-09-20T17:16:23.635Z,100309.96
2022-09-20T17:18:58.637Z,100308.52
2022-09-20T17:21:26.916Z,100312.45
2022-09-20T17:23:56.122Z,100312.95
2022-09-20T17:26:22.745Z,100319.48
2022-09-20T17:28:52.965Z,100322.64
2022-09-20T17:31:22.640Z,100323.88
2022-09-20T17:33:50.093Z,100335.17
2022-09-20T17:36:19.565Z,100340.73
2022-09-20T17:38:47.714Z,100339.07
2022-09-20T17:41:18.742Z,100338.85
2022-09-20T17:43:46.427Z,100342.88
2022-09-20T17:46:15.876Z,100343.67
2022-09-20T17:48:48.500Z,100346.86
2022-09-20T17:51:18.538Z,100346.44
2022-09-20T17:53:46.184Z,100351.62
2022-09-20T17:56:14.057Z,100354.38
2022-09-20T17:58:41.880Z,100353.81
2022-09-20T18:01:16.547Z,100355.80
2022-09-20T18:03:45.910Z,100355.51
2022-09-20T18:06:25.137Z,100364.52
2022-09-20T18:09:06.139Z,100364.96
2022-09-20T18:11:49.069Z,100372.05
2022-09-20T18:14:19.697Z,100375.13
2022-09-20T18:16:47.078Z,100376.64
2022-09-20T18:19:15.521Z,100378.02
2022-09-20T18:21:43.627Z,100377.14
2022-09-20T18:24:11.908Z,100378.60
2022-09-20T18:26:39.618Z,100378.77
2022-09-20T18:29:10.638Z,100378.20
2022-09-20T18:31:59.149Z,100385.52
2022-09-20T18:34:51.274Z,100386.79
2022-09-20T18:37:17.798Z,100388.39
2022-09-20T18:39:44.457Z,100394.67
2022-09-20T18:42:11.309Z,100395.39
2022-09-20T18:44:39.890Z,100394.14
2022-09-20T18:47:06.611Z,100397.73
2022-09-20T18:49:33.887Z,100397.77
2022-09-20T18:52:00.927Z,100403.06
2022-09-20T18:54:32.945Z,100405.61
2022-09-20T18:56:59.874Z,100403.71
2022-09-20T18:59:27.512Z,100409.48
2022-09-20T19:02:05.274Z,100407.08
2022-09-20T19:05:12.109Z,100407.57
2022-09-20T19:07:45.061Z,100409.40
2022-09-20T19:10:14.370Z,100410.44
2022-09-20T19:13:05.866Z,100412.90
2022-09-20T19:16:09.575Z,100414.02
2022-09-20T19:18:43.540Z,100413.36
2022-09-20T19:21:10.101Z,100414.22
2022-09-20T19:24:03.467Z,100419.64
2022-09-20T19:26:37.471Z,100421.45
2022-09-20T19:29:21.698Z,100422.09
2022-09-20T19:31:50.465Z,100423.59
2022-09-20T19:34:26.587Z,100420.89
2022-09-20T19:37:36.217Z,100423.83
2022-09-20T19:40:25.735Z,100427.26
2022-09-20T19:43:15.364Z,100425.86
2022-09-20T19:46:08.612Z,100426.12
2022-09-20T19:48:47.352Z,100431.95
2022-09-20T19:51:14.716Z,100432.65
2022-09-20T19:53:41.720Z,100434.50
2022-09-20T19:56:14.204Z,100429.79
2022-09-20T19:58:42.877Z,100432.93
2022-09-20T20:01:10.169Z,100433.63
2022-09-20T20:03:37.125Z,100434.30
2022-09-20T20:06:19.675Z,100435.07
2022-09-20T20:09:06.109Z,100435.42
2022-09-20T20:11:38.407Z,100435.48
2022-09-20T20:14:23.907Z,100440.41
2022-09-20T20:17:08.454Z,100444.13
2022-09-20T20:19:54.357Z,100445.04
2022-09-20T20:22:39.197Z,100446.61
2022-09-20T20:25:25.860Z,100446.75
2022-09-20T20:27:52.529Z,100447.35
2022-09-20T20:30:19.754Z,100445.27
2022-09-20T20:32:47.077Z,100447.23
2022-09-20T20:35:15.072Z,100453.04
2022-09-20T20:37:41.675Z,100450.34
2022-09-20T20:40:14.712Z,100457.28
2022-09-20T20:42:42.469Z,100455.09
2022-09-20T20:45:10.647Z,100453.58
2022-09-20T20:47:40.121Z,100452.42
2022-09-20T20:50:07.357Z,100454.52
2022-09-20T20:52:34.009Z,100452.96
2022-09-20T20:55:00.877Z,100454.43
2022-09-20T20:57:27.780Z,100452.52
2022-09-20T20:59:54.522Z,100453.31
2022-09-20T21:02:21.508Z,100455.13
2022-09-20T21:04:48.132Z,100456.05
2022-09-20T21:07:16.375Z,100455.55
2022-09-20T21:09:43.046Z,100460.16
2022-09-20T21:12:09.647Z,100455.27
2022-09-20T21:14:37.053Z,100455.08
2022-09-20T21:17:04.109Z,100461.05
2022-09-20T21:19:30.858Z,100459.67
2022-09-20T21:21:57.430Z,100465.98
2022-09-20T21:24:24.171Z,100468.69
2022-09-20T21:26:51.027Z,100469.05
2022-09-20T21:29:17.624Z,100467.61
2022-09-20T21:31:46.435Z,100470.30
2022-09-20T21:34:15.463Z,100472.83
2022-09-20T21:36:44.159Z,100468.73
2022-09-20T21:39:11.536Z,100472.88
2022-09-20T21:41:39.919Z,100469.05
2022-09-20T21:44:09.451Z,100471.10
2022-09-20T21:46:41.766Z,100472.08
2022-09-20T21:49:10.775Z,100472.52
2022-09-20T21:51:40.007Z,100471.98
2022-09-20T21:54:06.877Z,100476.14
2022-09-20T21:56:38.118Z,100478.13
2022-09-20T21:59:07.417Z,100482.58
2022-09-20T22:01:36.752Z,100485.52
2022-09-20T22:04:09.007Z,100482.12
2022-09-20T22:06:38.414Z,100485.63
2022-09-20T22:09:07.937Z,100484.79
2022-09-20T22:11:40.336Z,100485.78
2022-09-20T22:14:09.330Z,100489.69
2022-09-20T22:16:41.289Z,100491.73
2022-09-20T22:19:12.999Z,100491.20
2022-09-20T22:21:42.768Z,100488.83
2022-09-20T22:24:11.508Z,100490.28
2022-09-20T22:26:49.251Z,100490.41
2022-09-20T22:29:17.713Z,100489.20
2022-09-20T22:31:46.898Z,100488.61
2022-09-20T22:34:19.600Z,100487.73
2022-09-20T22:36:46.543Z,100489.31
2022-09-20T22:39:14.943Z,100491.17
2022-09-20T22:41:42.519Z,100488.61
2022-09-20T22:44:10.281Z,100486.12
2022-09-20T22:46:38.177Z,100484.61
2022-09-20T22:49:08.874Z,100486.56
2022-09-20T22:51:37.504Z,100485.29
2022-09-20T22:54:07.445Z,100480.92
2022-09-20T22:56:34.708Z,100482.35
2022-09-20T22:59:08.851Z,100481.27
2022-09-20T23:01:54.893Z,100486.12
2022-09-20T23:04:23.040Z,100483.98
2022-09-20T23:06:55.916Z,100480.94
2022-09-20T23:09:27.198Z,100484.05
2022-09-20T23:11:53.810Z,100484.00
2022-09-20T23:14:21.347Z,100482.56
2022-09-20T23:16:48.731Z,100482.70
2022-09-20T23:19:16.633Z,100481.23
2022-09-20T23:21:44.318Z,100480.13
2022-09-20T23:24:13.464Z,100483.77
2022-09-20T23:26:41.969Z,100486.70
2022-09-20T23:29:11.566Z,100485.35
2022-09-20T23:31:40.553Z,100487.52
2022-09-20T23:34:08.532Z,100491.45
2022-09-20T23:36:37.813Z,100494.04
2022-09-20T23:39:07.574Z,100491.61
2022-09-20T23:41:36.234Z,100493.40
2022-09-20T23:44:05.964Z,100495.48
2022-09-20T23:46:33.513Z,100496.48
2022-09-20T23:49:00.627Z,100498.86
2022-09-20T23:51:28.999Z,100498.58
2022-09-20T23:53:55.804Z,100496.70
2022-09-20T23:56:23.434Z,100495.77
2022-09-20T23:58:50.438Z,100495.46
